Time;durP1;ratioP1;P1;durP2;ratioP2;P2;SDS_P1;SDS_P2;PMS_P1;PMS_P2;Temp;Humidity;BMP_temperature;BMP_pressure;BME280_temperature;BME280_humidity;BME280_pressure;Samples;Min_cycle;Max_cycle;Signal;HPM_P1;HPM_P2
2022/04/17 00:02:13;;;;;;;2.38;0.85;;;;;;;28.03;29.84;102141.94;4957628;29;20163;-49
2022/04/17 00:04:41;;;;;;;1.48;0.82;;;;;;;28.00;29.79;102132.22;4957580;29;20031;-50
2022/04/17 00:07:10;;;;;;;1.55;0.82;;;;;;;27.95;30.00;102125.09;4956535;28;20055;-49
2022/04/17 00:09:38;;;;;;;1.88;1.00;;;;;;;27.89;29.97;102118.84;4957331;29;20034;-48
2022/04/17 00:12:07;;;;;;;1.50;0.98;;;;;;;27.96;29.92;102124.25;4957359;29;20027;-51
2022/04/17 00:14:37;;;;;;;1.55;1.05;;;;;;;27.93;29.63;102127.72;4940141;29;20381;-53
2022/04/17 00:17:06;;;;;;;4.38;1.00;;;;;;;27.83;29.98;102126.69;4957250;29;20054;-51
2022/04/17 00:19:34;;;;;;;1.33;0.75;;;;;;;27.80;30.11;102118.75;4957458;29;20481;-50
2022/04/17 00:22:03;;;;;;;1.67;0.75;;;;;;;27.82;30.20;102116.13;4957186;29;20039;-51
2022/04/17 00:24:32;;;;;;;1.25;0.63;;;;;;;27.85;30.10;102118.81;4957040;29;20038;-51
2022/04/17 00:27:01;;;;;;;1.00;0.73;;;;;;;27.79;29.92;102109.06;4956959;29;20038;-48
2022/04/17 00:29:29;;;;;;;4.97;1.27;;;;;;;27.82;30.17;102109.09;4956524;29;20035;-49
2022/04/17 00:31:58;;;;;;;1.65;0.90;;;;;;;27.75;29.98;102105.50;4956874;29;20371;-52
2022/04/17 00:34:29;;;;;;;1.10;0.68;;;;;;;27.75;30.03;102104.59;4956603;29;20515;-51
2022/04/17 00:36:59;;;;;;;1.35;0.73;;;;;;;27.72;30.24;102104.53;4957326;29;20038;-51
2022/04/17 00:39:28;;;;;;;1.60;0.80;;;;;;;27.74;30.07;102098.44;4956752;29;20055;-48
2022/04/17 00:41:57;;;;;;;1.70;0.65;;;;;;;27.77;29.86;102096.72;4956738;29;20114;-49
2022/04/17 00:44:26;;;;;;;1.65;0.90;;;;;;;27.75;30.07;102092.31;4956561;29;20562;-51
2022/04/17 00:46:55;;;;;;;0.90;0.70;;;;;;;27.64;30.25;102091.25;4956855;29;20094;-50
2022/04/17 00:49:23;;;;;;;0.88;0.70;;;;;;;27.69;30.02;102091.34;4956272;29;20027;-48
2022/04/17 00:51:53;;;;;;;1.95;0.90;;;;;;;27.65;30.14;102084.25;4956247;29;20397;-47
2022/04/17 00:54:22;;;;;;;2.78;0.80;;;;;;;27.68;29.89;102079.91;4956741;29;20029;-51
2022/04/17 00:56:49;;;;;;;0.85;0.75;;;;;;;27.67;30.07;102079.88;4956504;29;20038;-49
2022/04/17 00:59:18;;;;;;;1.02;0.85;;;;;;;27.66;30.19;102073.69;4939423;29;20019;-50
2022/04/17 01:01:46;;;;;;;2.53;1.10;;;;;;;27.63;29.89;102064.88;4956667;29;20027;-50
2022/04/17 01:04:15;;;;;;;1.48;0.75;;;;;;;27.66;29.77;102062.28;4955083;29;20035;-48
2022/04/17 01:06:44;;;;;;;1.20;0.70;;;;;;;27.64;30.04;102058.75;4956160;29;20031;-50
2022/04/17 01:09:12;;;;;;;1.33;0.88;;;;;;;27.59;30.22;102071.84;4956159;29;20098;-50
2022/04/17 01:11:41;;;;;;;1.08;0.73;;;;;;;27.56;30.16;102066.53;4956207;29;20039;-51
2022/04/17 01:14:12;;;;;;;1.50;0.90;;;;;;;27.54;29.92;102060.34;4956159;29;20031;-48
2022/04/17 01:16:41;;;;;;;2.05;0.70;;;;;;;27.57;30.12;102060.41;4956143;29;20354;-48
2022/04/17 01:19:13;;;;;;;1.30;0.98;;;;;;;27.56;29.92;102056.88;4938832;29;20056;-52
2022/04/17 01:21:43;;;;;;;1.40;1.13;;;;;;;27.54;30.17;102050.72;4956026;29;20035;-51
2022/04/17 01:27:00;;;;;;;2.33;0.90;;;;;;;27.50;30.08;102040.06;4949943;29;20039;-50
2022/04/17 01:29:31;;;;;;;2.20;0.90;;;;;;;27.46;30.06;102041.78;4955811;29;20034;-48
2022/04/17 01:32:00;;;;;;;1.95;1.10;;;;;;;27.46;30.03;102044.41;4956029;29;20086;-51
2022/04/17 01:34:29;;;;;;;1.85;0.88;;;;;;;27.46;30.14;102041.78;4928262;29;20059;-49
2022/04/17 01:36:58;;;;;;;2.78;0.90;;;;;;;27.39;30.23;102040.78;4936553;29;20036;-51
2022/04/17 01:39:27;;;;;;;2.35;1.00;;;;;;;27.38;29.98;102049.53;4936498;29;20028;-48
2022/04/17 01:41:57;;;;;;;1.42;0.85;;;;;;;27.36;30.31;102051.25;4936714;29;20063;-50
2022/04/17 01:44:28;;;;;;;1.20;1.00;;;;;;;27.38;30.11;102043.41;4919735;29;20027;-52
2022/04/17 01:46:57;;;;;;;1.70;1.02;;;;;;;27.37;30.26;102041.63;4936448;29;20035;-53
2022/04/17 01:49:26;;;;;;;3.78;1.20;;;;;;;27.36;30.44;102042.50;4936138;29;20030;-52
2022/04/17 01:51:55;;;;;;;2.35;0.98;;;;;;;27.32;30.30;102036.25;4936760;29;20074;-49
2022/04/17 01:54:24;;;;;;;1.45;0.90;;;;;;;27.36;30.27;102032.81;4919743;29;20088;-50
2022/04/17 01:56:54;;;;;;;0.70;0.70;;;;;;;27.37;30.23;102031.09;4936547;29;20030;-49
2022/04/17 01:59:24;;;;;;;1.27;1.00;;;;;;;27.33;30.12;102032.75;4936208;29;20126;-50
2022/04/17 02:01:54;;;;;;;1.45;1.17;;;;;;;27.30;30.20;102035.38;4919424;29;20541;-46
2022/04/17 02:04:26;;;;;;;1.83;1.00;;;;;;;27.26;30.21;102031.78;4936367;29;20054;-49
2022/04/17 02:06:55;;;;;;;2.30;1.23;;;;;;;27.22;30.11;102018.56;4935520;29;20031;-50
2022/04/17 02:09:23;;;;;;;2.75;1.50;;;;;;;27.23;30.60;102029.09;4935932;29;20067;-51
2022/04/17 02:11:53;;;;;;;2.83;1.25;;;;;;;27.20;30.23;102023.81;4936612;29;20554;-52
2022/04/17 02:14:22;;;;;;;1.67;0.95;;;;;;;27.18;30.37;102025.53;4936003;29;20035;-49
2022/04/17 02:16:50;;;;;;;2.17;1.20;;;;;;;27.21;30.22;102017.69;4935936;29;20056;-50
2022/04/17 02:19:19;;;;;;;2.58;1.15;;;;;;;27.20;30.54;102015.00;4935680;29;20028;-48
2022/04/17 02:21:47;;;;;;;1.77;1.25;;;;;;;27.10;30.29;102020.13;4936157;29;20094;-49
2022/04/17 02:24:15;;;;;;;1.95;1.10;;;;;;;27.08;30.42;102013.94;4935914;29;20110;-51
2022/04/17 02:26:44;;;;;;;2.33;1.45;;;;;;;27.06;30.32;102015.66;4919140;29;20039;-50
2022/04/17 02:29:13;;;;;;;3.47;1.60;;;;;;;27.06;30.22;102014.75;4936687;29;20478;-51
2022/04/17 02:31:41;;;;;;;2.55;1.70;;;;;;;27.08;30.42;102019.22;4942241;29;20042;-48
2022/04/17 02:34:10;;;;;;;3.50;1.52;;;;;;;27.01;30.43;102016.47;4933144;29;20051;-50
2022/04/17 02:36:39;;;;;;;5.20;1.52;;;;;;;26.99;30.42;102008.50;4944409;29;20031;-51
2022/04/17 02:39:07;;;;;;;2.50;1.38;;;;;;;26.95;30.49;102009.34;4961541;28;20477;-49
2022/04/17 02:41:36;;;;;;;2.08;1.02;;;;;;;27.00;30.47;102005.03;4961224;29;20031;-49
2022/04/17 02:44:06;;;;;;;2.78;1.73;;;;;;;26.93;30.24;102009.31;4960681;28;20035;-48
2022/04/17 02:49:22;;;;;;;2.45;1.60;;;;;;;26.87;30.27;101996.06;4957741;29;20066;-48
2022/04/17 02:51:51;;;;;;;2.25;1.40;;;;;;;26.86;30.55;101998.63;4961448;29;20054;-48
2022/04/17 02:54:20;;;;;;;3.42;1.50;;;;;;;26.90;30.33;102001.34;4961821;29;20437;-51
2022/04/17 02:56:49;;;;;;;2.58;1.50;;;;;;;26.83;30.38;101987.19;4944523;29;20493;-48
2022/04/17 02:59:17;;;;;;;2.88;1.70;;;;;;;26.89;30.06;101989.03;4961074;28;20031;-51
2022/04/17 03:07:20;;;;;;;1.65;1.25;;;;;;;26.80;30.52;101984.53;4957787;28;20054;-51
2022/04/17 03:09:49;;;;;;;3.55;1.52;;;;;;;26.85;30.47;101976.72;4961179;28;20481;-48
2022/04/17 03:12:18;;;;;;;3.20;1.80;;;;;;;26.86;30.40;101975.84;4961159;29;20035;-48
2022/04/17 03:14:46;;;;;;;2.92;1.58;;;;;;;26.85;30.23;101979.34;4960750;28;20433;-51
2022/04/17 03:17:15;;;;;;;2.10;1.52;;;;;;;26.81;30.29;101983.66;4960213;29;20064;-50
2022/04/17 03:19:43;;;;;;;2.13;1.38;;;;;;;26.82;30.56;101982.78;4961173;29;20492;-48
2022/04/17 03:22:12;;;;;;;4.72;1.80;;;;;;;26.78;30.44;101980.94;4961426;29;20428;-51
2022/04/17 03:24:41;;;;;;;3.45;1.75;;;;;;;26.78;30.49;101970.41;4927986;29;20058;-48
2022/04/17 03:27:09;;;;;;;3.42;1.45;;;;;;;26.81;30.34;101972.25;4961121;28;20448;-50
2022/04/17 03:29:38;;;;;;;3.38;1.60;;;;;;;26.81;30.57;101967.84;4959867;29;20444;-49
2022/04/17 03:32:07;;;;;;;2.85;1.48;;;;;;;26.85;30.36;101968.81;4960927;28;20023;-53
2022/04/17 03:34:36;;;;;;;2.42;1.52;;;;;;;26.80;30.13;101952.94;4943849;29;20039;-51
2022/04/17 03:37:05;;;;;;;2.55;1.48;;;;;;;26.81;30.46;101973.13;4961443;28;20047;-50
2022/04/17 03:39:34;;;;;;;2.42;1.48;;;;;;;26.81;30.26;101969.63;4960658;28;20099;-52
2022/04/17 03:42:02;;;;;;;3.25;1.20;;;;;;;26.78;30.50;101969.53;4957517;28;20087;-51
2022/04/17 03:44:31;;;;;;;2.08;1.40;;;;;;;26.77;30.34;101967.75;4940508;29;20035;-48
2022/04/17 03:47:00;;;;;;;4.30;1.92;;;;;;;26.73;30.20;101966.81;4957719;29;20035;-48
2022/04/17 03:49:29;;;;;;;2.42;1.50;;;;;;;26.76;30.29;101968.59;4957910;29;20102;-53
2022/04/17 03:52:00;;;;;;;3.28;1.50;;;;;;;26.73;30.39;101961.56;4957512;29;20083;-51
2022/04/17 03:54:29;;;;;;;2.92;1.98;;;;;;;26.69;30.50;101960.63;4941014;29;20035;-53
2022/04/17 03:56:57;;;;;;;2.83;1.80;;;;;;;26.66;30.56;101954.41;4957798;29;20026;-50
2022/04/17 03:59:25;;;;;;;1.63;1.40;;;;;;;26.66;30.59;101957.03;4957528;29;20031;-53
2022/04/17 04:01:54;;;;;;;2.50;1.67;;;;;;;26.68;30.25;101960.56;4957555;29;20031;-54
2022/04/17 04:04:21;;;;;;;3.13;2.08;;;;;;;26.68;30.31;101955.31;4957668;29;20031;-51
2022/04/17 04:06:50;;;;;;;3.03;1.80;;;;;;;26.63;30.57;101954.38;4957880;29;20027;-50
2022/04/17 04:09:19;;;;;;;3.75;1.85;;;;;;;26.61;30.27;101950.81;4957642;29;20469;-50
2022/04/17 04:11:47;;;;;;;1.90;1.40;;;;;;;26.63;30.28;101949.09;4957135;29;20086;-52
2022/04/17 04:14:15;;;;;;;4.60;1.50;;;;;;;26.65;30.22;101953.53;4957647;29;20031;-47
2022/04/17 04:16:44;;;;;;;2.67;1.92;;;;;;;26.62;30.60;101949.97;4957265;29;20412;-52
2022/04/17 04:19:13;;;;;;;2.85;1.58;;;;;;;26.56;30.53;101942.81;4957267;29;20110;-48
2022/04/17 04:21:51;;;;;;;3.08;1.60;;;;;;;26.55;30.45;101943.72;4957235;29;20042;-50
2022/04/17 04:24:20;;;;;;;2.70;1.48;;;;;;;26.53;30.69;101943.66;4957239;29;20114;-47
2022/04/17 04:28:33;;;;;;;2.60;1.90;;;;;;;26.52;30.42;101941.88;4956913;29;20501;-51
2022/04/17 04:29:37;;;;;;;1.98;1.50;;;;;;;26.51;30.63;101947.13;4956671;29;20481;-47
2022/04/17 04:32:06;;;;;;;6.53;2.13;;;;;;;26.55;30.30;101941.09;4956897;29;20035;-49
2022/04/17 04:34:34;;;;;;;3.58;1.48;;;;;;;26.59;30.50;101944.63;4956474;29;20055;-51
2022/04/17 04:37:03;;;;;;;3.47;1.60;;;;;;;26.61;30.13;101945.56;4957112;29;20037;-49
2022/04/17 04:39:31;;;;;;;3.08;1.55;;;;;;;26.63;30.32;101947.34;4956937;29;20107;-49
2022/04/17 04:41:58;;;;;;;2.40;1.48;;;;;;;26.64;30.33;101948.25;4956826;29;20039;-50
2022/04/17 04:44:27;;;;;;;1.60;1.40;;;;;;;26.64;30.42;101950.88;4956855;29;20034;-48
2022/04/17 04:46:55;;;;;;;2.70;1.58;;;;;;;26.65;30.22;101953.53;4956656;29;20086;-50
2022/04/17 04:49:32;;;;;;;2.35;1.40;;;;;;;26.67;30.15;101945.63;4956550;29;20470;-47
2022/04/17 04:52:02;;;;;;;2.63;1.25;;;;;;;26.63;30.57;101946.47;4956536;29;20038;-50
2022/04/17 04:54:31;;;;;;;3.63;1.88;;;;;;;26.66;30.36;101949.13;4956333;29;20532;-49
2022/04/17 04:57:00;;;;;;;2.70;1.23;;;;;;;26.66;30.04;101949.13;4939254;29;20031;-52
2022/04/17 04:59:29;;;;;;;3.15;1.30;;;;;;;26.64;30.23;101953.50;4956383;29;20042;-51
2022/04/17 05:01:58;;;;;;;4.53;1.40;;;;;;;26.67;30.25;101949.19;4956632;29;20034;-50
2022/04/17 05:04:27;;;;;;;2.40;1.42;;;;;;;26.61;30.16;101940.28;4956241;29;20035;-50
2022/04/17 05:06:56;;;;;;;3.47;1.30;;;;;;;26.58;30.54;101943.75;4956209;29;20438;-47
2022/04/17 05:09:25;;;;;;;2.70;1.52;;;;;;;26.63;30.33;101943.84;4939261;29;20085;-48
2022/04/17 05:11:53;;;;;;;4.72;1.50;;;;;;;26.62;30.24;101940.31;4956035;29;20039;-52
2022/04/17 05:14:22;;;;;;;2.67;1.52;;;;;;;26.58;30.53;101941.09;4956550;29;20106;-51
2022/04/17 05:16:51;;;;;;;3.20;1.95;;;;;;;26.54;30.47;101929.66;4956182;29;20039;-50
2022/04/17 05:19:20;;;;;;;3.28;2.15;;;;;;;26.49;30.41;101933.06;4956056;29;20038;-50
2022/04/17 05:21:51;;;;;;;2.83;1.85;;;;;;;26.48;30.50;101928.66;4955975;29;20059;-50
2022/04/17 05:24:20;;;;;;;2.50;1.65;;;;;;;26.44;30.53;101922.47;4955683;29;20039;-50
2022/04/17 05:26:48;;;;;;;3.65;1.75;;;;;;;26.43;30.44;101928.59;4956082;29;20106;-49
2022/04/17 05:29:17;;;;;;;3.08;1.63;;;;;;;26.44;30.39;101926.81;4955805;29;20035;-50
2022/04/17 05:31:46;;;;;;;2.42;1.70;;;;;;;26.45;30.33;101936.50;4955762;29;20032;-47
2022/04/17 05:34:14;;;;;;;2.63;1.52;;;;;;;26.43;30.50;101930.31;4955715;29;20043;-53
2022/04/17 05:36:43;;;;;;;3.40;1.50;;;;;;;26.45;30.32;101926.88;4938978;29;20031;-51
2022/04/17 05:39:12;;;;;;;2.65;1.70;;;;;;;26.44;30.27;101925.09;4955325;29;20027;-47
2022/04/17 05:41:40;;;;;;;1.90;1.40;;;;;;;26.52;30.32;101931.38;4955982;29;20095;-48
2022/04/17 05:44:12;;;;;;;3.40;1.92;;;;;;;26.53;30.40;101922.63;4956083;29;20055;-52
2022/04/17 05:46:41;;;;;;;2.20;1.52;;;;;;;26.44;30.58;101925.09;4955698;29;20116;-51
2022/04/17 05:49:09;;;;;;;2.88;1.65;;;;;;;26.53;30.13;101930.50;4955422;29;20393;-51
2022/04/17 05:51:38;;;;;;;1.88;1.58;;;;;;;26.51;30.35;101929.59;4955500;29;20438;-47
2022/04/17 05:54:08;;;;;;;3.53;1.48;;;;;;;26.47;30.31;101927.78;4955588;29;20444;-47
2022/04/17 05:56:37;;;;;;;2.47;1.75;;;;;;;26.48;30.27;101929.53;4955171;29;20024;-48
2022/04/17 05:59:07;;;;;;;3.13;1.60;;;;;;;26.49;30.10;101930.44;4955580;29;20037;-52
2022/04/17 06:01:35;;;;;;;2.60;1.35;;;;;;;26.52;30.30;101931.38;4955276;29;20110;-50
2022/04/17 06:04:04;;;;;;;1.83;1.42;;;;;;;26.51;30.45;101929.59;4955286;28;20091;-49
2022/04/17 06:06:33;;;;;;;1.73;1.20;;;;;;;26.59;30.03;101927.09;4955027;29;20035;-50
2022/04/17 06:09:02;;;;;;;2.25;1.50;;;;;;;26.60;30.19;101934.13;4955342;29;20438;-48
2022/04/17 06:11:31;;;;;;;1.90;1.27;;;;;;;26.63;30.03;101934.19;4955560;29;20059;-50
2022/04/17 06:14:00;;;;;;;3.65;1.73;;;;;;;26.71;29.92;101934.31;4955185;29;20071;-51
2022/04/17 06:16:28;;;;;;;1.85;1.50;;;;;;;26.69;30.08;101934.31;4955534;29;20066;-49
2022/04/17 06:18:57;;;;;;;1.50;1.38;;;;;;;26.73;30.16;101934.31;4955040;29;20046;-50
2022/04/17 06:21:26;;;;;;;2.17;1.42;;;;;;;26.72;30.09;101933.47;4938158;29;20397;-50
2022/04/17 06:23:54;;;;;;;3.67;1.33;;;;;;;26.76;29.99;101932.66;4955048;29;20031;-46
2022/04/17 06:26:23;;;;;;;3.33;1.73;;;;;;;26.82;30.11;101937.16;4955171;29;20059;-49
2022/04/17 06:28:51;;;;;;;1.50;1.10;;;;;;;26.79;30.30;101938.00;4938228;29;20031;-45
2022/04/17 06:31:20;;;;;;;1.50;1.27;;;;;;;26.81;30.25;101941.53;4955233;29;20504;-46
2022/04/17 06:33:47;;;;;;;2.25;1.33;;;;;;;26.79;30.29;101939.72;4954898;29;20032;-45
2022/04/17 06:36:14;;;;;;;1.50;1.20;;;;;;;26.87;30.21;101942.50;4954917;29;20028;-46
2022/04/17 06:38:43;;;;;;;4.97;1.27;;;;;;;26.83;30.63;101931.91;4954488;29;20032;-46
2022/04/17 06:41:10;;;;;;;1.65;1.30;;;;;;;26.84;30.51;101938.94;4955525;29;20098;-46
2022/04/17 06:43:39;;;;;;;2.85;1.65;;;;;;;26.86;30.42;101943.34;4954560;29;20027;-51
2022/04/17 06:46:07;;;;;;;4.90;1.55;;;;;;;26.89;30.68;101940.78;4954905;29;20106;-47
2022/04/17 06:48:35;;;;;;;3.08;1.50;;;;;;;26.95;30.66;101940.88;4937688;29;20019;-50
2022/04/17 06:51:04;;;;;;;3.17;1.55;;;;;;;26.97;30.68;101939.16;4955209;29;20030;-47
2022/04/17 06:53:32;;;;;;;3.90;1.80;;;;;;;26.94;30.54;101939.13;4954848;29;20031;-45
2022/04/17 06:56:01;;;;;;;3.85;1.80;;;;;;;26.97;30.64;101941.81;4954930;29;20110;-49
2022/04/17 06:58:29;;;;;;;2.65;1.77;;;;;;;26.97;30.80;101934.78;4954270;29;20083;-50
2022/04/17 07:00:57;;;;;;;3.25;1.60;;;;;;;26.99;30.77;101934.78;4954733;29;20465;-48
2022/04/17 07:03:26;;;;;;;5.30;1.60;;;;;;;27.00;30.92;101933.91;4954666;29;20397;-48
2022/04/17 07:05:55;;;;;;;2.47;1.88;;;;;;;26.97;30.93;101932.13;4955296;29;20381;-48
2022/04/17 07:08:24;;;;;;;4.32;2.00;;;;;;;27.03;30.59;101936.59;4954179;29;20449;-50
2022/04/17 07:10:52;;;;;;;3.72;2.05;;;;;;;27.05;30.63;101931.38;4954731;29;20042;-47
2022/04/17 07:13:21;;;;;;;3.38;1.73;;;;;;;27.05;30.81;101931.38;4954798;29;20086;-48
2022/04/17 07:15:50;;;;;;;3.88;1.95;;;;;;;27.06;30.82;101933.13;4937777;29;20023;-48
2022/04/17 07:18:19;;;;;;;2.55;1.65;;;;;;;27.07;30.51;101930.53;4958475;29;20035;-45
2022/04/17 07:20:47;;;;;;;3.00;1.50;;;;;;;27.09;30.74;101926.19;4958294;29;20023;-49
2022/04/17 07:23:16;;;;;;;4.00;1.67;;;;;;;27.10;30.55;101925.31;4958345;29;20031;-48
2022/04/17 07:25:45;;;;;;;4.75;2.05;;;;;;;27.05;30.61;101913.81;4958348;29;20433;-48
2022/04/17 07:28:14;;;;;;;3.30;1.50;;;;;;;27.13;30.81;101922.75;4958445;29;20039;-47
2022/04/17 07:30:43;;;;;;;2.47;1.40;;;;;;;27.12;30.81;101923.59;4958176;29;20144;-47
2022/04/17 07:33:12;;;;;;;2.83;1.90;;;;;;;27.16;30.65;101921.88;4958244;29;20074;-49
2022/04/17 07:35:40;;;;;;;2.65;1.52;;;;;;;27.18;30.87;101933.34;4957817;29;20070;-45
2022/04/17 07:38:08;;;;;;;2.08;1.38;;;;;;;27.20;30.76;101931.59;4957410;29;20098;-51
2022/04/17 07:40:37;;;;;;;3.92;1.80;;;;;;;27.20;30.67;101917.53;4957926;29;20115;-46
2022/04/17 07:43:06;;;;;;;2.47;1.30;;;;;;;27.25;30.90;101921.13;4957892;29;20027;-45
2022/04/17 07:45:35;;;;;;;5.07;1.85;;;;;;;27.26;30.97;101917.63;4958036;29;20031;-49
2022/04/17 07:48:04;;;;;;;1.88;1.30;;;;;;;27.29;30.81;101917.69;4957516;29;20031;-50
2022/04/17 07:50:33;;;;;;;3.63;1.02;;;;;;;27.31;30.97;101910.66;4958187;29;20038;-46
2022/04/17 07:53:01;;;;;;;2.72;1.30;;;;;;;27.33;30.75;101914.22;4957778;29;20063;-48
2022/04/17 07:55:30;;;;;;;3.33;1.40;;;;;;;27.33;30.94;101911.56;4957696;29;20090;-50
2022/04/17 08:00:28;;;;;;;2.55;1.10;;;;;;;27.40;31.04;101912.53;4958052;29;20487;-48
2022/04/17 08:03:06;;;;;;;5.45;1.63;;;;;;;27.42;30.90;101910.81;4957808;29;20027;-45
2022/04/17 08:05:39;;;;;;;2.88;1.20;;;;;;;27.43;31.08;101910.84;4957336;29;20386;-51
2022/04/17 08:08:09;;;;;;;2.85;1.27;;;;;;;27.48;30.80;101905.66;4957620;29;20036;-49
2022/04/17 08:10:38;;;;;;;1.70;1.17;;;;;;;27.49;31.11;101898.63;4957685;29;20035;-47
2022/04/17 08:13:05;;;;;;;2.28;1.42;;;;;;;27.49;30.94;101901.25;4957295;29;20389;-50
2022/04/17 08:15:34;;;;;;;1.88;1.05;;;;;;;27.57;30.96;101905.78;4957431;29;20090;-48
2022/04/17 08:18:03;;;;;;;2.67;1.30;;;;;;;27.60;30.97;101899.66;4940227;29;20480;-49
2022/04/17 08:20:32;;;;;;;1.55;1.23;;;;;;;27.60;30.81;101894.41;4956957;29;20122;-51
2022/04/17 08:23:01;;;;;;;2.50;1.55;;;;;;;27.65;30.89;101889.19;4957088;29;20066;-50
2022/04/17 08:25:30;;;;;;;2.30;1.30;;;;;;;27.66;30.81;101899.72;4957305;29;20055;-54
2022/04/17 08:27:59;;;;;;;2.05;1.30;;;;;;;27.66;30.75;101893.59;4955905;28;20110;-53
2022/04/17 08:30:30;;;;;;;1.75;1.17;;;;;;;27.66;31.00;101898.84;4956761;29;20090;-52
2022/04/17 08:33:00;;;;;;;1.92;1.23;;;;;;;27.69;30.79;101888.34;4956910;29;20437;-54
2022/04/17 08:35:28;;;;;;;1.45;1.00;;;;;;;27.72;30.93;101893.63;4940008;29;20474;-49
2022/04/17 08:38:00;;;;;;;2.17;1.35;;;;;;;27.74;31.02;101884.91;4956993;29;20023;-49
2022/04/17 08:40:29;;;;;;;2.28;1.20;;;;;;;27.75;31.03;101889.31;4939751;29;20056;-51
2022/04/17 08:42:59;;;;;;;1.20;1.10;;;;;;;27.82;30.74;101886.72;4956756;29;20070;-50
2022/04/17 08:45:28;;;;;;;4.25;1.52;;;;;;;27.84;30.71;101879.72;4956624;29;20035;-53
2022/04/17 08:47:57;;;;;;;4.78;1.27;;;;;;;27.80;30.61;101880.56;4939759;29;20389;-52
2022/04/17 08:50:25;;;;;;;1.52;1.10;;;;;;;27.81;30.76;101872.66;4956472;29;20504;-49
2022/04/17 08:52:55;;;;;;;1.55;1.00;;;;;;;27.86;30.59;101883.25;4956583;29;20067;-53
2022/04/17 08:55:24;;;;;;;1.75;0.93;;;;;;;27.88;30.69;101882.41;4957073;29;20031;-55
2022/04/17 08:57:53;;;;;;;1.23;1.00;;;;;;;27.92;30.77;101877.16;4956632;29;20388;-46
2022/04/17 09:00:21;;;;;;;4.03;1.23;;;;;;;27.95;30.57;101875.47;4956898;29;20429;-48
2022/04/17 09:02:51;;;;;;;2.20;0.90;;;;;;;27.93;30.69;101879.84;4956555;29;20031;-45
2022/04/17 09:05:20;;;;;;;1.70;1.00;;;;;;;27.96;30.76;101881.59;4956385;29;20050;-46
2022/04/17 09:07:51;;;;;;;2.50;1.15;;;;;;;27.99;30.62;101877.25;4956475;29;20041;-49
2022/04/17 09:10:31;;;;;;;1.85;1.17;;;;;;;28.00;30.72;101883.41;4954702;29;20043;-47
2022/04/17 09:13:01;;;;;;;2.40;0.90;;;;;;;28.01;30.90;101880.78;4956385;29;20032;-51
2022/04/17 09:15:33;;;;;;;9.77;1.10;;;;;;;28.04;30.78;101874.69;4956428;29;20462;-45
2022/04/17 09:18:01;;;;;;;2.40;1.13;;;;;;;28.05;30.73;101881.69;4939352;29;20035;-48
2022/04/17 09:20:30;;;;;;;2.35;0.88;;;;;;;28.11;30.72;101875.66;4956120;29;20027;-51
2022/04/17 09:23:00;;;;;;;3.70;0.98;;;;;;;28.10;30.61;101874.75;4956185;29;20422;-52
2022/04/17 09:25:29;;;;;;;2.15;1.00;;;;;;;28.12;30.78;101867.75;4956131;29;20082;-47
2022/04/17 09:27:59;;;;;;;3.80;1.25;;;;;;;28.11;30.67;101860.69;4956096;29;20400;-49
2022/04/17 09:30:29;;;;;;;1.60;1.02;;;;;;;28.15;30.75;101861.59;4956232;29;20075;-51
2022/04/17 09:32:59;;;;;;;5.95;0.98;;;;;;;28.16;30.67;101864.28;4955412;29;20030;-48
2022/04/17 09:35:28;;;;;;;3.40;1.10;;;;;;;28.17;30.55;101873.06;4955720;29;20047;-47
2022/04/17 09:37:59;;;;;;;2.28;0.95;;;;;;;28.18;30.92;101864.28;4955914;29;20031;-50
2022/04/17 09:40:31;;;;;;;2.40;1.25;;;;;;;28.18;30.75;101864.28;4955004;28;20549;-48
2022/04/17 09:43:19;;;;;;;0.85;0.80;;;;;;;28.24;30.81;101872.25;4956068;29;20083;-49
2022/04/17 09:46:06;;;;;;;4.15;0.98;;;;;;;28.26;30.85;101867.88;4955718;29;20113;-51
2022/04/17 09:48:40;;;;;;;1.98;1.23;;;;;;;28.27;30.73;101861.75;4955896;29;20031;-50
2022/04/17 09:51:29;;;;;;;3.30;1.20;;;;;;;28.32;30.96;101857.34;4939967;29;20027;-52
2022/04/17 09:54:04;;;;;;;1.88;0.98;;;;;;;28.33;30.75;101855.63;4955601;29;20268;-53
2022/04/17 09:56:38;;;;;;;4.68;1.17;;;;;;;28.33;30.80;101859.13;4955463;29;20043;-49
2022/04/17 09:59:26;;;;;;;1.45;1.02;;;;;;;28.38;30.80;101853.88;4955233;29;20031;-46
2022/04/17 10:01:56;;;;;;;2.28;1.10;;;;;;;28.37;30.66;101851.25;4938621;29;20039;-50
2022/04/17 10:04:26;;;;;;;4.07;0.90;;;;;;;28.39;30.70;101854.78;4938167;29;20097;-52
2022/04/17 10:06:59;;;;;;;3.15;1.45;;;;;;;28.43;30.48;101851.31;4955512;29;20041;-46
2022/04/17 10:09:28;;;;;;;3.58;1.08;;;;;;;28.49;30.48;101851.34;4955709;29;20552;-51
2022/04/17 10:11:59;;;;;;;4.45;1.52;;;;;;;28.49;30.19;101846.06;4955127;29;20042;-49
2022/04/17 10:14:30;;;;;;;2.28;0.90;;;;;;;28.50;30.07;101845.19;4955765;29;20047;-51
2022/04/17 10:16:59;;;;;;;9.65;1.50;;;;;;;28.46;29.84;101843.41;4955597;29;20488;-52
2022/04/17 10:19:28;;;;;;;6.53;2.58;;;;;;;28.50;29.70;101846.09;4955231;29;20115;-49
2022/04/17 10:22:01;;;;;;;13.88;1.90;;;;;;;28.51;29.77;101844.31;4954940;29;20083;-48
2022/04/17 10:24:30;;;;;;;5.45;1.40;;;;;;;28.49;29.58;101840.78;4938212;29;20066;-52
2022/04/17 10:26:59;;;;;;;7.28;1.65;;;;;;;28.47;29.43;101846.06;4938129;29;20062;-51
2022/04/17 10:29:49;;;;;;;5.88;1.20;;;;;;;28.48;29.43;101845.19;4938368;29;20024;-49
2022/04/17 10:32:36;;;;;;;10.60;1.73;;;;;;;28.44;29.53;101842.53;4954934;29;20028;-50
2022/04/17 10:35:43;;;;;;;7.55;1.48;;;;;;;28.44;29.33;101842.53;4951140;29;20199;-49
2022/04/17 10:38:32;;;;;;;3.95;1.52;;;;;;;28.47;29.72;101842.53;4952438;29;20493;-52
2022/04/17 10:41:07;;;;;;;4.00;1.40;;;;;;;28.48;29.40;101841.66;4935141;29;20065;-48
2022/04/17 10:43:55;;;;;;;5.93;1.50;;;;;;;28.52;29.40;101843.44;4955285;29;20027;-51
2022/04/17 10:46:23;;;;;;;3.13;1.30;;;;;;;28.52;29.47;101846.09;4949092;29;20438;-50
2022/04/17 10:48:55;;;;;;;4.68;1.42;;;;;;;28.52;29.41;101843.44;4954940;29;20485;-46
2022/04/17 10:51:25;;;;;;;5.32;1.55;;;;;;;28.53;29.40;101847.84;4939688;29;20027;-52
2022/04/17 10:54:05;;;;;;;9.48;1.40;;;;;;;28.59;29.35;101847.91;4958849;29;20552;-47
2022/04/17 10:56:39;;;;;;;1.85;1.10;;;;;;;28.58;29.29;101854.06;4958881;29;20071;-49
2022/04/17 10:59:28;;;;;;;4.18;1.48;;;;;;;28.60;29.57;101844.41;4958791;29;20054;-50
2022/04/17 11:02:02;;;;;;;3.88;1.50;;;;;;;28.59;29.35;101840.00;4958553;29;20512;-47
2022/04/17 11:04:41;;;;;;;2.33;1.30;;;;;;;28.61;29.34;101832.97;4958549;29;20043;-48
2022/04/17 11:07:10;;;;;;;6.25;1.38;;;;;;;28.63;29.41;101833.84;4958516;29;20063;-50
2022/04/17 11:09:42;;;;;;;4.90;1.45;;;;;;;28.61;29.35;101826.78;4958195;29;20114;-48
2022/04/17 11:12:29;;;;;;;4.82;1.55;;;;;;;28.64;29.49;101835.59;4958453;29;20563;-48
2022/04/17 11:15:06;;;;;;;3.45;1.40;;;;;;;28.65;29.61;101836.50;4941798;29;20473;-47
2022/04/17 11:17:35;;;;;;;2.95;1.23;;;;;;;28.67;29.46;101834.75;4958444;29;20031;-51
2022/04/17 11:20:04;;;;;;;1.63;1.00;;;;;;;28.66;29.48;101843.56;4958619;29;20031;-51
2022/04/17 11:22:35;;;;;;;6.05;1.50;;;;;;;28.67;29.23;101826.84;4958648;29;20031;-46
2022/04/17 11:25:10;;;;;;;3.88;1.58;;;;;;;28.64;29.16;101825.06;4940954;29;20047;-46
2022/04/17 11:27:41;;;;;;;4.80;1.00;;;;;;;28.59;29.58;101824.16;4958179;29;20070;-51
2022/04/17 11:30:14;;;;;;;3.10;1.20;;;;;;;28.64;29.28;101834.75;4958233;29;20031;-51
2022/04/17 11:32:43;;;;;;;3.42;1.40;;;;;;;28.66;29.35;101825.94;4958053;29;20032;-51
2022/04/17 11:35:14;;;;;;;2.15;1.10;;;;;;;28.64;29.38;101818.91;4957830;29;20445;-51
2022/04/17 11:37:52;;;;;;;8.40;1.48;;;;;;;28.63;29.32;101831.19;4958533;29;20111;-49
2022/04/17 11:40:22;;;;;;;2.97;1.02;;;;;;;28.64;29.49;101826.81;4958264;29;20421;-48
2022/04/17 11:42:53;;;;;;;3.80;1.40;;;;;;;28.61;29.42;101821.50;4958258;29;20027;-49
2022/04/17 11:45:26;;;;;;;3.17;1.02;;;;;;;28.64;29.28;101826.81;4957816;29;20038;-51
2022/04/17 11:47:56;;;;;;;3.88;1.50;;;;;;;28.62;29.43;101829.47;4958041;29;20031;-46
2022/04/17 11:50:29;;;;;;;2.28;1.35;;;;;;;28.59;29.34;101824.16;4957810;29;20046;-48
2022/04/17 11:53:01;;;;;;;2.75;1.20;;;;;;;28.64;29.31;101813.63;4940560;29;20036;-52